createdAt,value
2017-10-26T00:00:27.883Z,17.44
2017-10-26T00:03:01.151Z,17.43
2017-10-26T00:05:35.014Z,17.49
2017-10-26T00:08:08.187Z,17.57
2017-10-26T00:10:43.709Z,17.61
2017-10-26T00:13:46.725Z,17.78
2017-10-26T00:16:44.612Z,17.93
2017-10-26T00:19:34.882Z,17.94
2017-10-26T00:22:18.111Z,17.71
2017-10-26T00:24:52.104Z,17.56
2017-10-26T00:27:49.945Z,17.41
2017-10-26T00:30:25.195Z,17.41
2017-10-26T00:32:59.406Z,17.49
2017-10-26T00:35:31.905Z,17.36
2017-10-26T00:38:15.547Z,17.38
2017-10-26T00:40:49.108Z,17.44
2017-10-26T00:43:23.011Z,17.54
2017-10-26T00:45:57.087Z,17.64
2017-10-26T00:48:30.659Z,17.77
2017-10-26T00:51:03.024Z,17.84
2017-10-26T00:53:35.020Z,17.89
2017-10-26T00:59:02.007Z,18.01
2017-10-26T01:01:34.579Z,17.98
2017-10-26T01:09:45.108Z,18.01
2017-10-26T01:12:18.892Z,17.99
2017-10-26T01:14:50.618Z,17.95
2017-10-26T01:20:25.724Z,17.81
2017-10-26T01:29:44.397Z,17.56
2017-10-26T01:32:53.607Z,17.67
2017-10-26T01:35:29.917Z,17.66
2017-10-26T01:38:06.585Z,17.70
2017-10-26T01:40:40.228Z,17.72
2017-10-26T01:43:20.705Z,17.68
2017-10-26T01:46:10.254Z,17.68
2017-10-26T01:48:47.905Z,17.46
2017-10-26T01:54:04.562Z,17.36
2017-10-26T01:56:40.342Z,17.38
2017-10-26T01:59:19.426Z,17.37
2017-10-26T02:01:54.123Z,17.42
2017-10-26T02:04:27.634Z,17.46
2017-10-26T02:07:06.964Z,17.56
2017-10-26T02:09:45.188Z,17.64
2017-10-26T02:12:31.042Z,17.58
2017-10-26T02:18:02.798Z,17.68
2017-10-26T02:20:44.829Z,17.66
2017-10-26T02:23:31.318Z,17.67
2017-10-26T02:26:27.487Z,17.70
2017-10-26T02:32:27.247Z,17.73
2017-10-26T02:38:10.891Z,17.74
2017-10-26T02:41:13.052Z,17.76
2017-10-26T02:43:48.620Z,17.74
2017-10-26T02:46:40.217Z,17.75
2017-10-26T02:49:45.219Z,17.70
2017-10-26T02:52:22.344Z,17.65
2017-10-26T02:55:01.080Z,17.52
2017-10-26T02:57:42.943Z,17.68
2017-10-26T03:00:22.713Z,17.63
2017-10-26T03:03:02.012Z,17.46
2017-10-26T03:05:47.614Z,17.64
2017-10-26T03:08:36.323Z,17.71
2017-10-26T03:11:14.540Z,17.64
2017-10-26T03:14:10.301Z,17.68
2017-10-26T03:16:48.661Z,17.74
2017-10-26T03:19:24.421Z,17.69
2017-10-26T03:21:57.712Z,17.24
2017-10-26T03:24:28.841Z,17.11
2017-10-26T03:27:03.106Z,17.16
2017-10-26T03:29:35.695Z,17.17
2017-10-26T03:32:08.130Z,17.42
2017-10-26T03:34:47.510Z,17.56
2017-10-26T03:37:28.604Z,17.67
2017-10-26T03:40:07.635Z,17.63
2017-10-26T03:42:45.286Z,17.51
2017-10-26T03:45:23.542Z,17.47
2017-10-26T03:48:02.877Z,17.47
2017-10-26T03:50:37.952Z,17.56
2017-10-26T03:53:14.614Z,17.61
2017-10-26T03:58:30.112Z,17.55
2017-10-26T04:01:11.298Z,17.60
2017-10-26T04:03:51.922Z,17.48
2017-10-26T04:06:27.403Z,17.46
2017-10-26T04:09:11.103Z,17.38
2017-10-26T04:11:58.513Z,17.42
2017-10-26T04:14:31.809Z,17.48
2017-10-26T04:17:06.520Z,17.55
2017-10-26T04:19:39.516Z,17.55
2017-10-26T04:22:12.920Z,17.55
2017-10-26T04:24:51.236Z,17.55
2017-10-26T04:27:48.465Z,17.39
2017-10-26T04:30:28.335Z,17.32
2017-10-26T04:33:09.853Z,17.26
2017-10-26T04:35:45.206Z,17.30
2017-10-26T04:38:18.885Z,17.41
2017-10-26T04:40:52.091Z,17.46
2017-10-26T04:43:27.384Z,17.43
2017-10-26T04:46:00.592Z,17.44
2017-10-26T04:48:33.185Z,17.44
2017-10-26T04:51:06.302Z,17.38
2017-10-26T04:53:40.702Z,17.33
2017-10-26T04:56:16.581Z,17.25
2017-10-26T04:58:49.109Z,17.19
2017-10-26T05:01:30.940Z,17.28
2017-10-26T05:04:19.224Z,17.17
2017-10-26T05:06:53.718Z,17.26
2017-10-26T05:09:27.531Z,17.20
2017-10-26T05:12:01.032Z,17.19
2017-10-26T05:20:00.935Z,17.25
2017-10-26T05:22:34.231Z,17.15
2017-10-26T05:28:08.645Z,17.46
2017-10-26T05:30:42.525Z,17.52
2017-10-26T05:33:34.669Z,17.41
2017-10-26T05:36:26.522Z,17.37
2017-10-26T05:39:07.001Z,17.26
2017-10-26T05:41:43.945Z,17.07
2017-10-26T05:44:17.305Z,17.01
2017-10-26T05:54:41.801Z,17.00
2017-10-26T05:57:15.437Z,16.81
2017-10-26T05:59:48.402Z,17.02
2017-10-26T06:02:33.755Z,16.93
2017-10-26T06:05:08.651Z,16.78
2017-10-26T06:07:40.897Z,16.98
2017-10-26T06:13:32.229Z,17.17
2017-10-26T06:16:12.842Z,17.27
2017-10-26T06:24:02.933Z,17.44
2017-10-26T06:26:36.874Z,17.54
2017-10-26T06:29:12.659Z,17.62
2017-10-26T06:31:48.038Z,17.79
2017-10-26T06:34:24.733Z,17.89
2017-10-26T06:37:15.737Z,17.68
2017-10-26T06:39:48.738Z,17.87
2017-10-26T06:42:23.558Z,17.90
2017-10-26T06:45:00.035Z,17.96
2017-10-26T06:47:47.716Z,17.99
2017-10-26T06:50:27.830Z,17.73
2017-10-26T06:53:10.384Z,17.50
2017-10-26T06:55:46.167Z,17.50
2017-10-26T06:58:43.703Z,17.57
2017-10-26T07:01:25.776Z,17.62
2017-10-26T07:04:07.001Z,17.85
2017-10-26T07:06:43.197Z,17.72
2017-10-26T07:09:21.805Z,17.92
2017-10-26T07:11:56.252Z,18.05
2017-10-26T07:14:31.224Z,18.17
2017-10-26T08:02:58.775Z,17.80
2017-10-26T08:05:38.118Z,18.05
2017-10-26T08:08:17.232Z,18.39
2017-10-26T08:10:54.207Z,18.63
2017-10-26T08:13:36.833Z,18.73
2017-10-26T08:16:14.535Z,19.10
2017-10-26T08:19:03.443Z,19.01
2017-10-26T08:21:47.802Z,19.21
2017-10-26T08:24:39.361Z,19.52
2017-10-26T08:27:18.943Z,19.76
2017-10-26T08:29:54.480Z,19.86
2017-10-26T08:32:35.296Z,19.77
2017-10-26T08:35:16.626Z,19.81
2017-10-26T08:38:04.729Z,19.84
2017-10-26T08:40:40.291Z,19.68
2017-10-26T08:43:32.277Z,19.89
2017-10-26T08:46:12.759Z,19.83
2017-10-26T08:51:56.557Z,20.14
2017-10-26T08:54:57.242Z,20.17
2017-10-26T08:57:45.889Z,20.20
2017-10-26T09:00:30.179Z,19.94
2017-10-26T09:03:17.000Z,20.28
2017-10-26T09:06:01.644Z,20.50
2017-10-26T09:08:44.306Z,20.72
2017-10-26T09:11:42.094Z,20.54
2017-10-26T09:14:35.843Z,20.59
2017-10-26T09:17:13.744Z,20.78
2017-10-26T09:19:51.625Z,20.75
2017-10-26T09:22:36.279Z,20.67
2017-10-26T09:25:39.918Z,20.94
2017-10-26T09:28:14.215Z,20.63
2017-10-26T09:30:53.814Z,20.85
2017-10-26T09:33:39.211Z,20.72
2017-10-26T09:36:16.644Z,20.48
2017-10-26T09:38:53.814Z,20.50
2017-10-26T09:41:38.097Z,20.49
2017-10-26T09:48:15.555Z,20.13
2017-10-26T09:51:04.568Z,20.06
2017-10-26T09:53:49.179Z,19.92
2017-10-26T09:59:04.734Z,19.98
2017-10-26T10:01:41.083Z,19.65
2017-10-26T10:04:16.215Z,20.07
2017-10-26T10:07:07.671Z,20.55
2017-10-26T10:09:44.068Z,20.79
2017-10-26T10:12:19.096Z,20.87
2017-10-26T10:17:56.046Z,21.26
2017-10-26T10:20:47.288Z,20.99
2017-10-26T10:26:50.628Z,20.68
2017-10-26T10:29:33.118Z,20.58
2017-10-26T10:32:08.126Z,20.52
2017-10-26T10:35:02.896Z,20.47
2017-10-26T10:37:44.224Z,20.43
2017-10-26T10:40:34.130Z,20.78
2017-10-26T10:46:12.128Z,21.77
2017-10-26T10:49:06.375Z,22.13
2017-10-26T10:51:43.140Z,21.82
2017-10-26T10:54:23.857Z,21.70
2017-10-26T10:57:06.879Z,21.80
2017-10-26T10:59:53.939Z,21.86
2017-10-26T11:08:41.676Z,21.31
2017-10-26T11:11:14.953Z,21.27
2017-10-26T11:13:48.240Z,21.57
2017-10-26T11:16:27.879Z,22.01
2017-10-26T11:22:06.033Z,22.44
2017-10-26T11:24:45.818Z,22.16
2017-10-26T11:30:15.080Z,21.92
2017-10-26T11:35:39.001Z,22.00
2017-10-26T11:38:12.725Z,21.80
2017-10-26T11:40:47.591Z,21.87
2017-10-26T11:43:28.253Z,21.76
2017-10-26T11:49:30.769Z,21.63
2017-10-26T11:52:13.531Z,21.59
2017-10-26T11:54:53.626Z,21.58
2017-10-26T11:57:28.503Z,21.68
2017-10-26T12:00:17.995Z,21.55
2017-10-26T12:02:56.347Z,21.43
2017-10-26T12:05:32.688Z,21.60
2017-10-26T12:08:26.093Z,21.74
2017-10-26T12:11:09.129Z,21.94
2017-10-26T12:15:05.676Z,22.08
2017-10-26T12:17:51.519Z,22.03
2017-10-26T12:20:29.419Z,22.42
2017-10-26T12:23:50.033Z,22.96
2017-10-26T12:27:38.922Z,22.98
2017-10-26T12:30:17.215Z,22.89
2017-10-26T12:45:23.158Z,23.31
2017-10-26T12:48:14.845Z,23.53
2017-10-26T12:50:52.334Z,23.44
2017-10-26T12:53:27.521Z,23.51
2017-10-26T12:58:41.396Z,24.24
2017-10-26T13:01:16.328Z,24.38
2017-10-26T13:03:48.826Z,23.95
2017-10-26T13:06:22.730Z,23.69
2017-10-26T13:08:59.739Z,23.60
2017-10-26T13:11:38.411Z,23.10
2017-10-26T13:14:14.422Z,23.05
2017-10-26T13:16:59.242Z,23.19
2017-10-26T13:19:33.762Z,23.27
2017-10-26T13:22:14.440Z,23.07
2017-10-26T13:25:09.744Z,22.95
2017-10-26T13:27:43.453Z,22.61
2017-10-26T13:30:20.560Z,22.08
2017-10-26T13:33:01.044Z,22.14
2017-10-26T13:35:33.645Z,22.10
2017-10-26T13:38:11.747Z,22.00
2017-10-26T13:40:58.942Z,22.18
2017-10-26T13:43:50.326Z,22.27
2017-10-26T13:46:24.730Z,22.35
2017-10-26T13:49:10.261Z,22.54
2017-10-26T13:51:43.617Z,22.37
2017-10-26T13:54:15.937Z,22.32
2017-10-26T13:57:02.019Z,22.44
2017-10-26T13:59:36.334Z,22.41
2017-10-26T14:02:10.808Z,22.05
2017-10-26T14:04:50.073Z,21.95
2017-10-26T14:08:17.977Z,22.00
2017-10-26T14:10:51.085Z,21.71
2017-10-26T14:13:24.801Z,21.63
2017-10-26T14:15:58.381Z,21.61
2017-10-26T14:18:32.453Z,21.62
2017-10-26T14:21:08.021Z,21.70
2017-10-26T14:23:41.272Z,21.74
2017-10-26T14:26:13.985Z,21.67
2017-10-26T14:28:47.726Z,21.53
2017-10-26T14:31:25.607Z,21.52
2017-10-26T14:33:59.367Z,21.51
2017-10-26T14:36:33.604Z,21.44
2017-10-26T14:39:07.536Z,21.51
2017-10-26T14:41:39.985Z,21.52
2017-10-26T14:44:16.591Z,21.39
2017-10-26T14:46:50.004Z,21.08
2017-10-26T14:52:07.830Z,20.97
2017-10-26T14:54:43.633Z,20.97
2017-10-26T14:57:20.507Z,20.87
2017-10-26T14:59:53.650Z,20.81
2017-10-26T15:02:31.112Z,20.79
2017-10-26T15:09:15.537Z,20.66
2017-10-26T15:11:49.020Z,20.73
2017-10-26T15:14:27.777Z,20.59
2017-10-26T15:17:04.839Z,20.75
2017-10-26T15:19:52.001Z,20.87
2017-10-26T15:22:25.891Z,20.88
2017-10-26T15:25:11.355Z,20.73
2017-10-26T15:27:43.881Z,20.71
2017-10-26T15:30:28.409Z,20.47
2017-10-26T15:36:20.283Z,20.27
2017-10-26T15:38:52.970Z,20.17
2017-10-26T15:41:27.667Z,20.06
2017-10-26T15:44:01.662Z,20.01
2017-10-26T15:46:44.125Z,19.87
2017-10-26T15:49:17.485Z,19.85
2017-10-26T15:51:51.360Z,19.90
2017-10-26T15:54:24.250Z,19.86
2017-10-26T15:56:59.059Z,19.86
2017-10-26T15:59:32.008Z,19.82
2017-10-26T16:02:06.765Z,19.83
2017-10-26T16:04:39.556Z,19.83
2017-10-26T16:07:33.618Z,19.52
2017-10-26T16:10:06.257Z,19.41
2017-10-26T16:12:39.255Z,19.36
2017-10-26T16:15:14.733Z,19.44
2017-10-26T16:17:51.438Z,19.49
2017-10-26T16:20:23.943Z,19.37
2017-10-26T16:22:59.532Z,19.42
2017-10-26T16:25:39.276Z,19.39
2017-10-26T16:28:12.830Z,19.36
2017-10-26T16:33:24.565Z,19.02
2017-10-26T16:35:57.405Z,18.89
2017-10-26T16:38:29.903Z,18.83
2017-10-26T16:41:02.196Z,18.73
2017-10-26T16:43:35.148Z,18.65
2017-10-26T16:46:13.514Z,18.66
2017-10-26T16:48:45.494Z,18.54
2017-10-26T16:51:19.686Z,18.55
2017-10-26T16:53:51.906Z,18.65
2017-10-26T16:56:24.630Z,18.65
2017-10-26T16:58:57.096Z,18.69
2017-10-26T17:01:30.594Z,18.59
2017-10-26T17:04:02.688Z,18.68
2017-10-26T17:06:35.323Z,18.77
2017-10-26T17:09:08.481Z,18.70
2017-10-26T17:11:40.803Z,18.52
2017-10-26T17:14:12.974Z,18.58
2017-10-26T17:16:45.564Z,18.50
2017-10-26T17:22:08.413Z,18.62
2017-10-26T17:24:40.596Z,18.67
2017-10-26T17:27:13.195Z,18.71
2017-10-26T17:29:46.676Z,18.72
2017-10-26T17:32:21.015Z,18.75
2017-10-26T17:34:56.044Z,18.70
2017-10-26T17:37:28.029Z,18.76
2017-10-26T17:40:01.804Z,18.77
2017-10-26T17:42:34.423Z,18.90
2017-10-26T17:45:21.825Z,18.66
2017-10-26T17:48:12.818Z,18.55
2017-10-26T17:50:44.970Z,18.53
2017-10-26T17:53:36.761Z,18.54
2017-10-26T18:09:07.557Z,18.12
2017-10-26T18:11:49.168Z,18.14
2017-10-26T18:14:22.969Z,18.21
2017-10-26T18:16:57.063Z,18.14
2017-10-26T18:19:44.541Z,18.12
2017-10-26T18:22:32.466Z,18.03
2017-10-26T18:25:05.018Z,18.05
2017-10-26T18:27:38.735Z,18.05
2017-10-26T18:30:20.566Z,17.94
2017-10-26T18:32:52.557Z,17.93
2017-10-26T18:35:30.083Z,18.08
2017-10-26T18:38:03.060Z,18.03
2017-10-26T18:40:35.161Z,17.89
2017-10-26T18:43:07.659Z,17.90
2017-10-26T18:45:58.208Z,17.90
2017-10-26T18:48:48.579Z,17.94
2017-10-26T18:51:22.285Z,18.11
2017-10-26T18:53:55.150Z,17.95
2017-10-26T18:56:29.360Z,17.82
2017-10-26T18:59:03.274Z,17.89
2017-10-26T19:01:37.354Z,17.80
2017-10-26T19:04:11.614Z,17.91
2017-10-26T19:06:44.995Z,17.89
2017-10-26T19:09:19.815Z,17.96
2017-10-26T19:11:52.584Z,18.08
2017-10-26T19:14:27.659Z,18.00
2017-10-26T19:17:03.071Z,18.15
2017-10-26T19:19:36.854Z,18.07
2017-10-26T19:22:11.183Z,18.12
2017-10-26T19:24:43.791Z,18.14
2017-10-26T19:27:21.908Z,18.16
2017-10-26T19:29:54.879Z,18.15
2017-10-26T19:32:45.515Z,18.21
2017-10-26T19:38:41.785Z,18.14
2017-10-26T19:41:14.965Z,18.06
2017-10-26T19:43:49.199Z,18.09
2017-10-26T19:49:02.847Z,17.93
2017-10-26T19:51:35.483Z,17.81
2017-10-26T19:54:08.756Z,17.96
2017-10-26T19:56:43.450Z,17.87
2017-10-26T19:59:47.754Z,17.91
2017-10-26T20:02:22.457Z,17.99
2017-10-26T20:04:56.710Z,18.06
2017-10-26T20:07:34.417Z,17.93
2017-10-26T20:10:09.664Z,17.89
2017-10-26T20:12:41.893Z,17.94
2017-10-26T20:15:20.695Z,18.10
2017-10-26T20:18:06.151Z,18.23
2017-10-26T20:21:32.452Z,18.31
2017-10-26T20:24:07.898Z,18.24
2017-10-26T20:26:50.405Z,18.17
2017-10-26T20:29:26.018Z,18.08
2017-10-26T20:32:07.533Z,18.02
2017-10-26T20:34:41.946Z,18.19
2017-10-26T20:37:14.635Z,18.13
2017-10-26T20:39:47.622Z,18.04
2017-10-26T20:42:22.448Z,17.96
2017-10-26T20:44:57.786Z,18.05
2017-10-26T20:47:32.234Z,18.03
2017-10-26T20:50:18.160Z,18.17
2017-10-26T20:55:02.704Z,18.02
2017-10-26T20:59:48.222Z,18.09
2017-10-26T21:04:27.017Z,18.01
2017-10-26T21:07:13.399Z,17.93
2017-10-26T21:09:50.609Z,18.06
2017-10-26T21:13:31.219Z,18.09
2017-10-26T21:16:14.334Z,18.04
2017-10-26T21:18:49.042Z,17.95
2017-10-26T21:21:25.661Z,17.97
2017-10-26T21:23:58.835Z,17.86
2017-10-26T21:26:31.292Z,17.73
2017-10-26T21:29:42.855Z,17.89
2017-10-26T21:32:48.943Z,17.75
2017-10-26T21:35:26.724Z,17.77
2017-10-26T21:37:58.948Z,17.77
2017-10-26T21:40:47.446Z,17.51
2017-10-26T21:43:40.910Z,17.50
2017-10-26T21:46:18.244Z,17.23
2017-10-26T21:48:51.556Z,17.45
2017-10-26T21:51:27.143Z,17.54
2017-10-26T21:54:03.053Z,17.57
2017-10-26T21:56:35.770Z,17.53
2017-10-26T21:59:09.359Z,17.47
2017-10-26T22:01:42.877Z,17.41
2017-10-26T22:04:17.061Z,17.12
2017-10-26T22:06:51.336Z,17.13
2017-10-26T22:09:33.308Z,17.07
2017-10-26T22:12:07.513Z,17.31
2017-10-26T22:14:41.314Z,17.23
2017-10-26T22:17:15.142Z,17.17
2017-10-26T22:19:56.973Z,17.11
2017-10-26T22:22:30.153Z,17.16
2017-10-26T22:25:03.957Z,17.13
2017-10-26T22:27:37.663Z,17.24
2017-10-26T22:30:13.655Z,17.13
2017-10-26T22:32:47.468Z,17.18
2017-10-26T22:36:07.839Z,17.04
2017-10-26T22:38:40.994Z,17.04
2017-10-26T22:41:14.817Z,16.96
2017-10-26T22:43:46.842Z,17.09
2017-10-26T22:46:29.185Z,17.18
2017-10-26T22:49:02.641Z,17.14
2017-10-26T22:51:34.931Z,17.20
2017-10-26T22:54:08.078Z,17.26
2017-10-26T22:56:40.920Z,17.32
2017-10-26T22:59:14.165Z,17.41
2017-10-26T23:01:46.231Z,17.48
2017-10-26T23:04:19.525Z,17.38
2017-10-26T23:06:52.607Z,17.25
2017-10-26T23:09:27.935Z,17.09
2017-10-26T23:12:00.104Z,17.01
2017-10-26T23:14:32.533Z,17.01
2017-10-26T23:17:05.763Z,16.94
2017-10-26T23:19:39.036Z,17.02
2017-10-26T23:22:12.266Z,16.99
2017-10-26T23:24:45.114Z,17.07
2017-10-26T23:27:24.262Z,16.93
2017-10-26T23:29:57.262Z,16.93
2017-10-26T23:32:29.530Z,17.07
2017-10-26T23:35:02.345Z,17.17
2017-10-26T23:37:34.735Z,16.94
2017-10-26T23:42:46.754Z,16.60
2017-10-26T23:45:21.364Z,16.56
2017-10-26T23:47:53.339Z,16.68
2017-10-26T23:50:26.154Z,16.64
2017-10-26T23:53:01.952Z,16.60
2017-10-26T23:55:34.565Z,16.59
2017-10-26T23:58:07.057Z,16.56
